createdAt,value
2022-09-02T00:01:24.009Z,90.30
2022-09-02T00:03:52.173Z,90.30
2022-09-02T00:06:19.632Z,90.40
2022-09-02T00:08:46.893Z,90.50
2022-09-02T00:11:21.601Z,90.60
2022-09-02T00:13:49.647Z,90.60
2022-09-02T00:16:17.908Z,90.80
2022-09-02T00:18:45.869Z,90.70
2022-09-02T00:21:14.600Z,90.80
2022-09-02T00:23:43.068Z,90.80
2022-09-02T00:26:10.800Z,91.00
2022-09-02T00:28:38.273Z,91.00
2022-09-02T00:31:05.659Z,91.10
2022-09-02T00:33:32.503Z,91.20
2022-09-02T00:36:01.105Z,91.20
2022-09-02T00:38:29.326Z,91.20
2022-09-02T00:40:56.354Z,91.20
2022-09-02T00:43:48.104Z,91.20
2022-09-02T00:46:17.074Z,91.20
2022-09-02T00:48:49.860Z,91.20
2022-09-02T00:51:17.003Z,91.20
2022-09-02T00:53:46.537Z,91.10
2022-09-02T00:56:21.297Z,91.10
2022-09-02T00:58:50.449Z,91.00
2022-09-02T01:01:17.455Z,91.00
2022-09-02T01:03:44.492Z,91.10
2022-09-02T01:06:15.242Z,91.10
2022-09-02T01:08:47.379Z,91.00
2022-09-02T01:11:14.319Z,91.00
2022-09-02T01:13:42.923Z,91.10
2022-09-02T01:16:31.328Z,91.10
2022-09-02T01:19:01.843Z,91.10
2022-09-02T01:21:28.649Z,91.20
2022-09-02T01:23:55.912Z,91.20
2022-09-02T01:26:22.796Z,91.10
2022-09-02T01:28:49.608Z,91.10
2022-09-02T01:31:16.367Z,91.10
2022-09-02T01:33:43.488Z,91.10
2022-09-02T01:36:12.186Z,91.10
2022-09-02T01:38:39.098Z,91.10
2022-09-02T01:41:06.022Z,91.00
2022-09-02T01:43:32.856Z,91.00
2022-09-02T01:45:59.782Z,91.00
2022-09-02T01:48:26.666Z,91.00
2022-09-02T01:50:57.910Z,91.00
2022-09-02T01:53:24.681Z,90.90
2022-09-02T01:55:51.943Z,91.00
2022-09-02T01:58:19.365Z,91.00
2022-09-02T02:00:47.298Z,91.00
2022-09-02T02:03:14.330Z,91.00
2022-09-02T02:05:41.338Z,90.90
2022-09-02T02:08:09.499Z,91.10
2022-09-02T02:10:36.953Z,91.10
2022-09-02T02:13:04.068Z,91.10
2022-09-02T02:17:56.782Z,91.00
2022-09-02T02:20:24.105Z,91.00
2022-09-02T02:22:51.161Z,90.90
2022-09-02T02:25:18.788Z,90.90
2022-09-02T02:27:45.840Z,90.90
2022-09-02T02:30:14.709Z,91.00
2022-09-02T02:32:42.077Z,91.00
2022-09-02T02:35:10.915Z,91.00
2022-09-02T02:37:37.779Z,90.90
2022-09-02T02:40:07.267Z,91.00
2022-09-02T02:42:34.827Z,91.00
2022-09-02T02:45:01.865Z,91.00
2022-09-02T02:47:28.688Z,91.10
2022-09-02T02:49:55.455Z,91.00
2022-09-02T02:52:22.233Z,91.00
2022-09-02T02:54:49.182Z,90.90
2022-09-02T02:57:15.916Z,90.90
2022-09-02T02:59:42.669Z,90.90
2022-09-02T03:02:09.718Z,90.90
2022-09-02T03:04:37.693Z,90.90
2022-09-02T03:07:06.906Z,90.90
2022-09-02T03:09:33.873Z,90.80
2022-09-02T03:12:00.992Z,90.90
2022-09-02T03:14:27.814Z,90.90
2022-09-02T03:16:54.536Z,91.00
2022-09-02T03:19:21.356Z,91.00
2022-09-02T03:21:48.086Z,90.90
2022-09-02T03:24:14.866Z,90.90
2022-09-02T03:26:42.985Z,91.00
2022-09-02T03:29:09.801Z,90.90
2022-09-02T03:31:36.687Z,91.00
2022-09-02T03:34:04.400Z,91.00
2022-09-02T03:36:44.015Z,91.00
2022-09-02T03:39:11.848Z,91.00
2022-09-02T03:41:41.297Z,90.90
2022-09-02T03:44:09.420Z,90.90
2022-09-02T03:46:36.431Z,91.00
2022-09-02T03:49:03.688Z,91.00
2022-09-02T03:51:31.632Z,90.90
2022-09-02T03:53:58.524Z,91.00
2022-09-02T03:56:25.506Z,91.00
2022-09-02T03:58:53.034Z,91.00
2022-09-02T04:01:24.563Z,91.00
2022-09-02T04:03:54.833Z,91.00
2022-09-02T04:06:26.201Z,90.90
2022-09-02T04:08:59.262Z,90.90
2022-09-02T04:11:26.059Z,90.90
2022-09-02T04:13:54.094Z,90.90
2022-09-02T04:17:16.816Z,90.80
2022-09-02T04:20:39.848Z,90.90
2022-09-02T04:23:06.892Z,91.00
2022-09-02T04:25:34.129Z,91.00
2022-09-02T04:28:00.920Z,91.00
2022-09-02T04:30:27.673Z,90.90
2022-09-02T04:32:54.403Z,91.00
2022-09-02T04:35:21.368Z,90.90
2022-09-02T04:37:49.033Z,91.00
2022-09-02T04:40:15.932Z,91.00
2022-09-02T04:42:42.713Z,91.00
2022-09-02T04:45:09.985Z,91.00
2022-09-02T04:47:36.745Z,91.10
2022-09-02T04:50:03.920Z,91.10
2022-09-02T04:52:30.730Z,91.00
2022-09-02T04:54:57.574Z,91.00
2022-09-02T04:57:24.291Z,91.00
2022-09-02T04:59:51.001Z,91.00
2022-09-02T05:02:20.267Z,91.00
2022-09-02T05:04:47.144Z,91.00
2022-09-02T05:07:14.113Z,91.00
2022-09-02T05:09:40.792Z,91.10
2022-09-02T05:12:09.091Z,91.10
2022-09-02T05:14:36.443Z,91.10
2022-09-02T05:17:07.652Z,91.20
2022-09-02T05:19:35.184Z,91.20
2022-09-02T05:22:02.292Z,91.20
2022-09-02T05:24:29.605Z,91.20
2022-09-02T05:26:56.493Z,91.30
2022-09-02T05:29:23.903Z,91.30
2022-09-02T05:31:50.861Z,91.30
2022-09-02T05:34:18.504Z,91.30
2022-09-02T05:36:45.598Z,91.30
2022-09-02T05:39:12.486Z,91.40
2022-09-02T05:41:39.693Z,91.40
2022-09-02T05:44:07.520Z,91.40
2022-09-02T05:46:34.794Z,91.40
2022-09-02T05:49:17.281Z,91.40
2022-09-02T05:51:57.218Z,91.50
2022-09-02T05:54:28.631Z,91.50
2022-09-02T05:56:58.088Z,91.50
2022-09-02T05:59:26.952Z,91.50
2022-09-02T06:01:54.646Z,91.50
2022-09-02T06:04:22.655Z,91.60
2022-09-02T06:06:50.680Z,91.60
2022-09-02T06:09:21.031Z,91.60
2022-09-02T06:11:49.344Z,91.60
2022-09-02T06:14:22.367Z,91.60
2022-09-02T06:16:50.701Z,91.70
2022-09-02T06:19:20.431Z,91.80
2022-09-02T06:21:48.787Z,91.80
2022-09-02T06:24:15.669Z,91.80
2022-09-02T06:26:42.584Z,91.90
2022-09-02T06:29:10.240Z,92.00
2022-09-02T06:31:40.110Z,92.00
2022-09-02T06:34:06.939Z,92.00
2022-09-02T06:36:33.815Z,92.00
2022-09-02T06:39:01.622Z,92.00
2022-09-02T06:41:32.091Z,91.70
2022-09-02T06:44:01.703Z,91.80
2022-09-02T06:46:31.758Z,91.80
2022-09-02T06:48:58.781Z,91.70
2022-09-02T06:51:31.942Z,91.40
2022-09-02T06:53:59.217Z,90.70
2022-09-02T06:56:28.201Z,81.90
2022-09-02T06:58:55.231Z,67.10
2022-09-02T07:01:28.327Z,60.10
2022-09-02T07:04:13.642Z,42.80
2022-09-02T07:06:43.988Z,33.20
2022-09-02T07:09:16.084Z,28.00
2022-09-02T07:11:44.571Z,16.20
2022-09-02T07:14:11.289Z,13.10
2022-09-02T07:16:43.219Z,7.70
2022-09-02T07:19:15.152Z,1.00
2022-09-02T07:21:44.115Z,1.00
2022-09-02T07:24:12.819Z,1.00
2022-09-02T07:26:41.012Z,1.00
2022-09-02T07:29:09.011Z,1.00
2022-09-02T07:31:42.317Z,1.00
2022-09-02T07:34:10.042Z,1.00
2022-09-02T07:36:36.991Z,1.00
2022-09-02T07:39:08.674Z,1.00
2022-09-02T07:41:36.371Z,1.00
2022-09-02T07:44:04.939Z,1.00
2022-09-02T07:46:32.282Z,1.00
2022-09-02T07:49:00.907Z,1.00
2022-09-02T07:51:31.016Z,1.00
2022-09-02T07:53:58.025Z,1.00
2022-09-02T07:56:24.755Z,1.00
2022-09-02T07:58:52.393Z,1.00
2022-09-02T08:01:23.539Z,1.00
2022-09-02T08:03:51.106Z,1.00
2022-09-02T08:06:18.212Z,1.00
2022-09-02T08:08:56.585Z,1.00
2022-09-02T08:11:23.843Z,1.00
2022-09-02T08:13:51.655Z,1.00
2022-09-02T08:16:18.807Z,1.00
2022-09-02T08:18:46.392Z,1.00
2022-09-02T08:21:13.564Z,1.00
2022-09-02T08:23:41.176Z,1.00
2022-09-02T08:26:08.106Z,1.00
2022-09-02T08:28:35.260Z,1.00
2022-09-02T08:31:06.383Z,1.00
2022-09-02T08:33:33.107Z,1.00
2022-09-02T08:36:11.930Z,1.00
2022-09-02T08:38:38.773Z,1.00
2022-09-02T08:41:27.221Z,1.00
2022-09-02T08:43:57.665Z,1.00
2022-09-02T08:46:27.455Z,1.00
2022-09-02T08:49:19.867Z,1.00
2022-09-02T08:52:01.238Z,1.00
2022-09-02T08:54:45.941Z,1.00
2022-09-02T08:57:13.879Z,1.00
2022-09-02T09:02:24.591Z,1.00
2022-09-02T09:05:00.484Z,1.00
2022-09-02T09:07:45.306Z,1.00
2022-09-02T09:10:23.907Z,1.00
2022-09-02T09:12:56.378Z,1.00
2022-09-02T09:16:02.433Z,1.00
2022-09-02T09:18:48.727Z,1.00
2022-09-02T09:21:16.527Z,1.00
2022-09-02T09:23:44.165Z,1.00
2022-09-02T09:26:18.903Z,1.00
2022-09-02T09:28:48.382Z,1.00
2022-09-02T09:31:19.457Z,1.00
2022-09-02T09:34:09.824Z,1.00
2022-09-02T09:36:43.809Z,1.00
2022-09-02T09:39:31.759Z,1.00
2022-09-02T09:42:01.824Z,1.00
2022-09-02T09:44:45.012Z,1.00
2022-09-02T09:47:23.732Z,1.00
2022-09-02T09:49:51.575Z,1.00
2022-09-02T09:52:29.625Z,1.00
2022-09-02T09:55:25.150Z,1.00
2022-09-02T09:57:54.095Z,1.00
2022-09-02T10:00:28.714Z,1.00
2022-09-02T10:02:58.709Z,1.00
2022-09-02T10:05:25.383Z,1.00
2022-09-02T10:08:18.369Z,1.00
2022-09-02T10:11:01.294Z,1.00
2022-09-02T10:13:33.733Z,1.00
2022-09-02T10:16:37.328Z,1.00
2022-09-02T10:19:07.157Z,1.00
2022-09-02T10:22:21.204Z,1.00
2022-09-02T10:25:07.762Z,1.00
2022-09-02T10:28:04.246Z,1.00
2022-09-02T10:30:39.008Z,1.00
2022-09-02T10:33:41.043Z,1.00
2022-09-02T10:36:27.738Z,1.00
2022-09-02T10:38:59.384Z,1.00
2022-09-02T10:41:48.562Z,1.00
2022-09-02T10:44:29.775Z,1.00
2022-09-02T10:47:10.417Z,1.00
2022-09-02T10:50:08.024Z,1.00
2022-09-02T10:53:08.737Z,1.00
2022-09-02T10:55:45.199Z,1.00
2022-09-02T10:58:25.321Z,1.00
2022-09-02T11:00:56.836Z,1.00
2022-09-02T11:03:29.712Z,1.00
2022-09-02T11:06:14.581Z,1.00
2022-09-02T11:08:46.452Z,1.00
2022-09-02T11:11:33.035Z,1.00
2022-09-02T11:13:59.721Z,1.00
2022-09-02T11:16:29.539Z,1.00
2022-09-02T11:19:06.191Z,1.00
2022-09-02T11:21:50.443Z,1.00
2022-09-02T11:24:22.503Z,1.00
2022-09-02T11:27:26.272Z,1.00
2022-09-02T11:30:24.224Z,1.00
2022-09-02T11:32:59.710Z,1.00
2022-09-02T11:35:30.122Z,1.00
2022-09-02T11:38:15.413Z,1.00
2022-09-02T11:41:32.129Z,1.00
2022-09-02T11:43:46.549Z,1.00
2022-09-02T11:46:28.168Z,1.00
2022-09-02T11:49:29.489Z,1.00
2022-09-02T11:52:06.369Z,1.00
2022-09-02T11:54:41.947Z,1.00
2022-09-02T11:57:14.151Z,1.00
2022-09-02T12:00:06.888Z,1.00
2022-09-02T12:02:45.299Z,1.00
2022-09-02T12:05:30.521Z,1.00
2022-09-02T12:08:00.704Z,1.00
2022-09-02T12:10:43.536Z,1.00
2022-09-02T12:13:31.534Z,1.00
2022-09-02T12:16:15.426Z,1.00
2022-09-02T12:18:54.043Z,1.00
2022-09-02T12:21:27.958Z,1.00
2022-09-02T12:23:57.734Z,1.00
2022-09-02T12:26:44.738Z,1.00
2022-09-02T12:29:20.515Z,1.00
2022-09-02T12:31:52.500Z,1.00
2022-09-02T12:34:25.405Z,1.00
2022-09-02T12:36:55.927Z,1.00
2022-09-02T12:39:27.185Z,1.00
2022-09-02T12:42:10.181Z,1.00
2022-09-02T12:45:01.646Z,1.00
2022-09-02T12:47:41.038Z,1.00
2022-09-02T12:50:34.569Z,1.00
2022-09-02T12:53:23.297Z,1.00
2022-09-02T12:55:57.944Z,1.00
2022-09-02T12:58:25.340Z,1.00
2022-09-02T13:01:29.781Z,1.00
2022-09-02T13:04:17.117Z,1.00
2022-09-02T13:07:14.507Z,1.00
2022-09-02T13:09:56.407Z,1.00
2022-09-02T13:12:30.155Z,1.00
2022-09-02T13:15:19.116Z,1.00
2022-09-02T13:18:11.283Z,1.00
2022-09-02T13:20:56.132Z,1.00
2022-09-02T13:24:00.372Z,1.00
2022-09-02T13:26:50.209Z,1.00
2022-09-02T13:29:39.671Z,1.00
2022-09-02T13:32:25.651Z,1.00
2022-09-02T13:34:57.294Z,1.00
2022-09-02T13:37:37.849Z,1.00
2022-09-02T13:40:24.696Z,1.00
2022-09-02T13:42:56.779Z,1.00
2022-09-02T13:45:26.119Z,1.00
2022-09-02T13:47:59.723Z,1.00
2022-09-02T13:50:31.749Z,1.00
2022-09-02T13:55:53.269Z,1.00
2022-09-02T13:58:36.984Z,1.00
2022-09-02T14:01:24.509Z,1.00
2022-09-02T14:03:53.814Z,1.00
2022-09-02T14:06:25.496Z,1.00
2022-09-02T14:08:56.243Z,1.00
2022-09-02T14:11:28.212Z,1.00
2022-09-02T14:13:56.214Z,1.00
2022-09-02T14:16:33.228Z,1.00
2022-09-02T14:19:24.765Z,1.00
2022-09-02T14:22:02.387Z,1.00
2022-09-02T14:24:37.095Z,1.00
2022-09-02T14:27:04.008Z,1.00
2022-09-02T14:29:33.635Z,1.00
2022-09-02T14:32:24.781Z,1.00
2022-09-02T14:35:18.121Z,1.00
2022-09-02T14:37:54.718Z,1.00
2022-09-02T14:40:43.271Z,1.00
2022-09-02T14:43:14.193Z,1.00
2022-09-02T14:45:47.757Z,1.00
2022-09-02T14:48:23.769Z,1.00
2022-09-02T14:51:02.441Z,1.00
2022-09-02T14:53:29.854Z,1.00
2022-09-02T14:55:57.436Z,1.00
2022-09-02T14:58:27.197Z,1.00
2022-09-02T15:00:59.618Z,1.00
2022-09-02T15:03:27.998Z,1.00
2022-09-02T15:05:54.780Z,1.00
2022-09-02T15:08:22.007Z,1.00
2022-09-02T15:10:49.290Z,1.00
2022-09-02T15:13:29.138Z,1.00
2022-09-02T15:15:57.284Z,1.00
2022-09-02T15:18:24.376Z,1.00
2022-09-02T15:20:52.247Z,1.00
2022-09-02T15:23:19.202Z,1.00
2022-09-02T15:25:46.055Z,1.00
2022-09-02T15:28:13.636Z,1.00
2022-09-02T15:30:40.760Z,1.00
2022-09-02T15:33:08.839Z,1.00
2022-09-02T15:35:43.341Z,1.00
2022-09-02T15:38:10.090Z,1.00
2022-09-02T15:40:36.902Z,1.00
2022-09-02T15:43:03.596Z,1.00
2022-09-02T15:45:30.789Z,1.00
2022-09-02T15:47:58.877Z,1.00
2022-09-02T15:50:27.490Z,1.00
2022-09-02T15:52:55.951Z,1.00
2022-09-02T15:55:29.234Z,1.00
2022-09-02T15:57:56.647Z,1.00
2022-09-02T16:00:27.779Z,1.00
2022-09-02T16:02:57.019Z,1.00
2022-09-02T16:05:24.213Z,1.00
2022-09-02T16:07:55.057Z,1.00
2022-09-02T16:10:21.927Z,1.00
2022-09-02T16:12:49.204Z,1.00
2022-09-02T16:15:16.260Z,1.00
2022-09-02T16:17:43.132Z,1.00
2022-09-02T16:20:10.262Z,1.00
2022-09-02T16:22:37.373Z,1.00
2022-09-02T16:25:04.520Z,1.00
2022-09-02T16:27:49.956Z,1.00
2022-09-02T16:30:16.796Z,1.00
2022-09-02T16:32:44.212Z,1.00
2022-09-02T16:35:11.089Z,1.00
2022-09-02T16:37:37.800Z,1.00
2022-09-02T16:40:05.511Z,1.00
2022-09-02T16:42:37.456Z,1.00
2022-09-02T16:45:05.545Z,1.00
2022-09-02T16:47:32.366Z,1.00
2022-09-02T16:49:59.128Z,1.00
2022-09-02T16:52:25.931Z,1.00
2022-09-02T16:54:52.687Z,1.00
2022-09-02T16:57:19.438Z,1.00
2022-09-02T16:59:46.168Z,1.00
2022-09-02T17:02:12.969Z,1.00
2022-09-02T17:04:39.771Z,1.00
2022-09-02T17:07:06.718Z,1.00
2022-09-02T17:09:33.462Z,1.00
2022-09-02T17:12:00.175Z,1.00
2022-09-02T17:14:27.177Z,1.00
2022-09-02T17:16:54.013Z,1.00
2022-09-02T17:19:21.985Z,1.00
2022-09-02T17:21:51.569Z,1.00
2022-09-02T17:24:21.033Z,1.00
2022-09-02T17:26:50.756Z,1.00
2022-09-02T17:32:09.483Z,1.00
2022-09-02T17:34:37.322Z,1.00
2022-09-02T17:37:05.132Z,1.00
2022-09-02T17:39:33.849Z,1.00
2022-09-02T17:42:01.076Z,1.00
2022-09-02T17:44:34.859Z,1.00
2022-09-02T17:47:05.760Z,1.00
2022-09-02T17:49:33.704Z,1.00
2022-09-02T17:52:00.932Z,1.00
2022-09-02T17:54:28.030Z,1.00
2022-09-02T17:57:32.620Z,1.00
2022-09-02T18:00:09.938Z,1.00
2022-09-02T18:02:37.423Z,1.00
2022-09-02T18:05:18.222Z,1.00
2022-09-02T18:08:13.013Z,1.00
2022-09-02T18:10:51.833Z,1.00
2022-09-02T18:13:28.119Z,1.00
2022-09-02T18:16:28.235Z,1.00
2022-09-02T18:19:19.775Z,1.00
2022-09-02T18:22:24.876Z,1.00
2022-09-02T18:25:03.344Z,1.00
2022-09-02T18:27:43.591Z,1.00
2022-09-02T18:30:21.273Z,1.00
2022-09-02T18:33:06.617Z,1.00
2022-09-02T18:35:55.714Z,1.00
2022-09-02T18:38:38.785Z,1.00
2022-09-02T18:41:32.724Z,1.00
2022-09-02T18:44:07.646Z,1.00
2022-09-02T18:46:54.146Z,1.00
2022-09-02T18:49:23.912Z,1.00
2022-09-02T18:51:55.462Z,1.00
2022-09-02T18:54:30.644Z,1.00
2022-09-02T18:56:59.468Z,1.00
2022-09-02T19:00:05.630Z,1.00
2022-09-02T19:02:53.416Z,1.00
2022-09-02T19:05:25.124Z,1.00
2022-09-02T19:08:21.812Z,1.00
2022-09-02T19:10:48.746Z,1.00
2022-09-02T19:13:15.571Z,1.00
2022-09-02T19:15:42.326Z,1.00
2022-09-02T19:18:10.658Z,1.00
2022-09-02T19:20:37.935Z,1.00
2022-09-02T19:23:06.476Z,1.00
2022-09-02T19:25:34.186Z,1.00
2022-09-02T19:28:02.587Z,1.00
2022-09-02T19:30:35.995Z,1.00
2022-09-02T19:33:07.777Z,1.00
2022-09-02T19:35:38.153Z,1.00
2022-09-02T19:38:05.087Z,1.00
2022-09-02T19:40:33.563Z,1.00
2022-09-02T19:43:03.589Z,1.00
2022-09-02T19:45:31.916Z,1.00
2022-09-02T19:48:08.375Z,1.00
2022-09-02T19:50:38.457Z,1.00
2022-09-02T19:53:05.891Z,1.00
2022-09-02T19:55:33.795Z,1.00
2022-09-02T19:58:00.741Z,1.00
2022-09-02T20:00:28.021Z,1.00
2022-09-02T20:02:56.039Z,1.00
2022-09-02T20:05:25.178Z,1.00
2022-09-02T20:07:53.780Z,1.00
2022-09-02T20:10:28.037Z,1.00
2022-09-02T20:12:57.636Z,1.00
2022-09-02T20:15:24.551Z,1.00
2022-09-02T20:17:51.511Z,1.00
2022-09-02T20:20:21.675Z,1.00
2022-09-02T20:22:55.102Z,1.00
2022-09-02T20:25:30.829Z,1.00
2022-09-02T20:28:13.860Z,1.00
2022-09-02T20:30:44.932Z,1.00
2022-09-02T20:33:24.024Z,1.00
2022-09-02T20:36:08.631Z,1.00
2022-09-02T20:38:51.672Z,1.00
2022-09-02T20:42:02.576Z,1.00
2022-09-02T20:44:42.536Z,1.00
2022-09-02T20:47:20.033Z,1.00
2022-09-02T20:50:33.424Z,1.00
2022-09-02T20:53:18.395Z,1.00
2022-09-02T20:55:52.808Z,1.00
2022-09-02T20:58:28.366Z,1.00
2022-09-02T21:01:09.452Z,1.00
2022-09-02T21:03:47.454Z,1.00
2022-09-02T21:06:15.847Z,1.00
2022-09-02T21:08:55.144Z,1.00
2022-09-02T21:11:22.958Z,1.00
2022-09-02T21:13:58.837Z,1.00
2022-09-02T21:16:38.935Z,1.00
2022-09-02T21:19:12.824Z,1.00
2022-09-02T21:22:04.256Z,1.00
2022-09-02T21:24:38.369Z,1.00
2022-09-02T21:27:25.623Z,1.00
2022-09-02T21:30:06.487Z,1.00
2022-09-02T21:32:39.406Z,1.00
2022-09-02T21:35:12.515Z,1.00
2022-09-02T21:37:42.428Z,1.00
2022-09-02T21:40:20.244Z,1.00
2022-09-02T21:43:25.131Z,1.00
2022-09-02T21:45:51.818Z,1.00
2022-09-02T21:48:25.964Z,1.00
2022-09-02T21:50:59.570Z,1.00
2022-09-02T21:53:48.006Z,1.00
2022-09-02T21:57:00.272Z,1.00
2022-09-02T21:59:45.735Z,1.00
2022-09-02T22:02:33.577Z,1.00
2022-09-02T22:05:11.805Z,1.00
2022-09-02T22:07:59.877Z,1.00
2022-09-02T22:10:43.910Z,1.00
2022-09-02T22:13:11.044Z,1.00
2022-09-02T22:15:56.482Z,1.00
2022-09-02T22:18:40.364Z,1.00
2022-09-02T22:21:48.130Z,1.00
2022-09-02T22:24:17.551Z,1.00
2022-09-02T22:26:58.674Z,1.00
2022-09-02T22:29:40.800Z,1.00
2022-09-02T22:32:10.403Z,1.00
2022-09-02T22:34:43.642Z,1.00
2022-09-02T22:37:18.741Z,1.00
2022-09-02T22:39:51.014Z,1.00
2022-09-02T22:42:29.560Z,1.00
2022-09-02T22:45:20.488Z,1.00
2022-09-02T22:48:13.153Z,1.00
2022-09-02T22:51:05.167Z,1.00
2022-09-02T22:53:32.062Z,1.00
2022-09-02T22:56:02.928Z,1.00
2022-09-02T22:58:41.583Z,1.00
2022-09-02T23:01:38.207Z,1.00
2022-09-02T23:04:11.148Z,1.00
2022-09-02T23:06:39.016Z,1.00
2022-09-02T23:09:11.353Z,1.00
2022-09-02T23:11:47.198Z,1.00
2022-09-02T23:14:26.874Z,1.00
2022-09-02T23:17:25.603Z,1.00
2022-09-02T23:20:39.539Z,1.00
2022-09-02T23:23:06.984Z,1.00
2022-09-02T23:26:19.883Z,1.00
2022-09-02T23:29:12.744Z,1.00
2022-09-02T23:31:57.580Z,1.00
2022-09-02T23:34:30.916Z,1.00
2022-09-02T23:37:25.165Z,1.00
2022-09-02T23:40:03.782Z,1.00
2022-09-02T23:42:30.773Z,1.00
2022-09-02T23:45:18.994Z,1.00
2022-09-02T23:48:22.108Z,1.00
2022-09-02T23:50:57.755Z,1.00
2022-09-02T23:53:54.056Z,1.40
2022-09-02T23:56:59.660Z,4.60
2022-09-02T23:59:56.525Z,9.00
